createdAt,value
2018-08-11T00:01:32.457Z,3.77
2018-08-11T00:04:05.905Z,3.77
2018-08-11T00:06:39.402Z,4.37
2018-08-11T00:09:12.957Z,3.70
2018-08-11T00:11:46.410Z,3.63
2018-08-11T00:14:19.983Z,3.20
2018-08-11T00:16:53.501Z,3.10
2018-08-11T00:19:26.954Z,3.08
2018-08-11T00:22:00.424Z,4.47
2018-08-11T00:24:33.860Z,3.47
2018-08-11T00:27:07.391Z,3.70
2018-08-11T00:29:40.851Z,2.77
2018-08-11T00:32:14.284Z,2.80
2018-08-11T00:34:47.944Z,2.70
2018-08-11T00:37:21.430Z,3.53
2018-08-11T00:39:54.833Z,3.53
2018-08-11T00:42:28.275Z,3.07
2018-08-11T00:45:01.703Z,2.90
2018-08-11T00:47:35.297Z,3.37
2018-08-11T00:50:12.791Z,2.80
2018-08-11T00:52:46.299Z,3.00
2018-08-11T00:55:19.790Z,4.13
2018-08-11T00:57:53.289Z,4.20
2018-08-11T01:00:26.860Z,2.93
2018-08-11T01:03:00.408Z,2.83
2018-08-11T01:05:33.908Z,2.20
2018-08-11T01:08:07.347Z,2.47
2018-08-11T01:10:40.777Z,2.63
2018-08-11T01:13:14.351Z,2.50
2018-08-11T01:15:47.792Z,2.90
2018-08-11T01:18:21.276Z,2.57
2018-08-11T01:20:54.677Z,2.43
2018-08-11T01:23:28.137Z,2.27
2018-08-11T01:26:01.536Z,2.37
2018-08-11T01:28:35.003Z,2.73
2018-08-11T01:31:08.408Z,3.07
2018-08-11T01:33:41.838Z,2.30
2018-08-11T01:36:15.284Z,2.43
2018-08-11T01:38:48.744Z,2.13
2018-08-11T01:41:22.141Z,2.70
2018-08-11T01:43:55.611Z,2.37
2018-08-11T01:46:29.072Z,2.08
2018-08-11T01:49:02.623Z,2.37
2018-08-11T01:51:36.011Z,2.27
2018-08-11T01:54:09.426Z,2.62
2018-08-11T01:56:42.823Z,2.30
2018-08-11T01:59:16.273Z,2.42
2018-08-11T02:01:49.727Z,2.30
2018-08-11T02:04:23.130Z,2.27
2018-08-11T02:06:56.565Z,2.10
2018-08-11T02:09:30.004Z,2.17
2018-08-11T02:12:03.469Z,2.20
2018-08-11T02:14:36.904Z,2.30
2018-08-11T02:17:10.448Z,2.08
2018-08-11T02:19:43.847Z,2.27
2018-08-11T02:22:17.296Z,2.15
2018-08-11T02:24:50.757Z,2.25
2018-08-11T02:27:24.157Z,2.17
2018-08-11T02:29:57.596Z,2.00
2018-08-11T02:32:31.070Z,2.08
2018-08-11T02:35:05.289Z,2.05
2018-08-11T02:37:38.831Z,1.75
2018-08-11T02:40:13.554Z,2.47
2018-08-11T02:42:47.064Z,2.00
2018-08-11T02:45:20.506Z,2.05
2018-08-11T02:47:54.060Z,1.72
2018-08-11T02:50:27.475Z,2.25
2018-08-11T02:53:01.046Z,1.92
2018-08-11T02:55:34.417Z,2.22
2018-08-11T02:58:07.811Z,1.87
2018-08-11T03:00:41.268Z,2.45
2018-08-11T03:03:14.705Z,2.37
2018-08-11T03:05:48.079Z,2.30
2018-08-11T03:08:21.485Z,2.30
2018-08-11T03:10:54.882Z,2.05
2018-08-11T03:13:28.309Z,2.25
2018-08-11T03:16:01.712Z,2.20
2018-08-11T03:18:35.149Z,2.20
2018-08-11T03:21:08.615Z,1.95
2018-08-11T03:23:42.035Z,2.22
2018-08-11T03:26:15.453Z,1.87
2018-08-11T03:28:48.884Z,2.20
2018-08-11T03:31:22.371Z,1.90
2018-08-11T03:33:55.984Z,1.75
2018-08-11T03:36:29.420Z,1.85
2018-08-11T03:39:02.925Z,2.20
2018-08-11T03:41:36.379Z,1.90
2018-08-11T03:44:10.260Z,1.80
2018-08-11T03:46:43.696Z,1.70
2018-08-11T03:49:17.165Z,2.05
2018-08-11T03:51:50.625Z,1.77
2018-08-11T03:54:24.115Z,2.17
2018-08-11T03:56:57.545Z,1.87
2018-08-11T03:59:31.107Z,1.70
2018-08-11T04:02:04.614Z,1.95
2018-08-11T04:04:38.128Z,2.12
2018-08-11T04:07:11.621Z,1.80
2018-08-11T04:09:45.079Z,1.90
2018-08-11T04:12:18.588Z,2.08
2018-08-11T04:14:52.003Z,1.85
2018-08-11T04:17:29.568Z,1.98
2018-08-11T04:20:03.078Z,2.08
2018-08-11T04:22:36.653Z,2.20
2018-08-11T04:25:10.583Z,1.92
2018-08-11T04:27:43.983Z,1.87
2018-08-11T04:30:17.834Z,1.75
2018-08-11T04:32:51.230Z,2.05
2018-08-11T04:35:24.684Z,1.75
2018-08-11T04:37:58.066Z,2.20
2018-08-11T04:40:31.506Z,1.80
2018-08-11T04:43:04.888Z,1.80
2018-08-11T04:45:38.298Z,2.10
2018-08-11T04:48:11.776Z,2.22
2018-08-11T04:50:45.200Z,1.90
2018-08-11T04:53:18.597Z,1.75
2018-08-11T04:55:52.040Z,2.00
2018-08-11T04:58:25.442Z,1.87
2018-08-11T05:00:58.885Z,1.77
2018-08-11T05:03:32.290Z,1.65
2018-08-11T05:06:05.708Z,2.10
2018-08-11T05:08:39.116Z,1.72
2018-08-11T05:11:12.525Z,1.70
2018-08-11T05:13:45.966Z,2.08
2018-08-11T05:16:19.473Z,2.30
2018-08-11T05:18:52.895Z,1.72
2018-08-11T05:21:26.353Z,2.22
2018-08-11T05:23:59.754Z,2.10
2018-08-11T05:26:33.164Z,1.90
2018-08-11T05:29:06.837Z,2.52
2018-08-11T05:31:40.474Z,2.17
2018-08-11T05:34:14.046Z,2.33
2018-08-11T05:36:48.155Z,2.50
2018-08-11T05:39:21.733Z,2.20
2018-08-11T05:41:55.320Z,2.37
2018-08-11T05:44:28.906Z,2.10
2018-08-11T05:47:02.497Z,2.62
2018-08-11T05:49:36.125Z,2.40
2018-08-11T05:52:09.727Z,2.37
2018-08-11T05:54:43.319Z,2.30
2018-08-11T05:57:17.072Z,2.65
2018-08-11T05:59:50.662Z,2.40
2018-08-11T06:02:24.290Z,2.50
2018-08-11T06:04:57.909Z,2.58
2018-08-11T06:07:31.594Z,2.52
2018-08-11T06:10:06.698Z,3.42
2018-08-11T06:12:40.402Z,2.92
2018-08-11T06:15:14.088Z,3.05
2018-08-11T06:17:47.671Z,2.33
2018-08-11T06:20:21.307Z,2.80
2018-08-11T06:22:54.966Z,2.77
2018-08-11T06:25:28.615Z,2.70
2018-08-11T06:28:02.216Z,2.50
2018-08-11T06:30:35.892Z,2.60
2018-08-11T06:33:09.590Z,2.40
2018-08-11T06:35:43.148Z,2.10
2018-08-11T06:38:16.777Z,2.70
2018-08-11T06:40:50.474Z,2.77
2018-08-11T06:43:24.001Z,2.60
2018-08-11T06:45:57.419Z,2.45
2018-08-11T06:48:31.073Z,2.40
2018-08-11T06:51:04.788Z,2.45
2018-08-11T06:53:38.372Z,2.50
2018-08-11T06:56:11.842Z,2.20
2018-08-11T06:58:45.235Z,1.75
2018-08-11T07:01:18.784Z,2.00
2018-08-11T07:03:52.754Z,1.85
2018-08-11T07:06:26.203Z,1.90
2018-08-11T07:09:00.561Z,1.70
2018-08-11T07:11:34.718Z,1.90
2018-08-11T07:14:09.041Z,1.87
2018-08-11T07:16:43.491Z,1.72
2018-08-11T07:19:17.589Z,1.95
2018-08-11T07:21:51.991Z,1.70
2018-08-11T07:24:26.054Z,1.92
2018-08-11T07:27:00.499Z,1.77
2018-08-11T07:29:35.141Z,1.40
2018-08-11T07:32:09.821Z,1.50
2018-08-11T07:34:43.828Z,1.55
2018-08-11T07:37:18.255Z,1.42
2018-08-11T07:39:52.602Z,1.45
2018-08-11T07:42:27.549Z,1.65
2018-08-11T07:45:04.285Z,1.70
2018-08-11T07:47:38.796Z,1.15
2018-08-11T07:50:13.200Z,1.47
2018-08-11T07:52:47.164Z,1.40
2018-08-11T07:55:21.145Z,1.42
2018-08-11T07:57:55.173Z,1.40
2018-08-11T08:00:29.189Z,1.30
2018-08-11T08:03:03.410Z,1.42
2018-08-11T08:05:37.518Z,1.40
2018-08-11T08:08:11.302Z,1.40
2018-08-11T08:10:45.278Z,1.15
2018-08-11T08:13:19.076Z,1.35
2018-08-11T08:15:53.071Z,1.35
2018-08-11T08:18:27.142Z,1.37
2018-08-11T08:21:01.298Z,1.00
2018-08-11T08:23:35.403Z,1.20
2018-08-11T08:26:09.419Z,1.35
2018-08-11T08:28:43.458Z,1.85
2018-08-11T08:31:17.882Z,2.05
2018-08-11T08:33:51.933Z,1.72
2018-08-11T08:36:25.928Z,1.52
2018-08-11T08:38:59.908Z,1.80
2018-08-11T08:41:33.797Z,1.65
2018-08-11T08:44:07.988Z,1.50
2018-08-11T08:46:42.456Z,1.70
2018-08-11T08:49:16.546Z,1.80
2018-08-11T08:51:50.911Z,1.60
2018-08-11T08:54:25.120Z,2.00
2018-08-11T08:56:59.027Z,2.10
2018-08-11T08:59:33.078Z,1.98
2018-08-11T09:02:07.433Z,1.77
2018-08-11T09:04:40.970Z,1.70
2018-08-11T09:07:14.431Z,1.85
2018-08-11T09:09:47.977Z,1.75
2018-08-11T09:12:21.371Z,1.60
2018-08-11T09:14:54.841Z,1.52
2018-08-11T09:17:28.696Z,1.60
2018-08-11T09:20:02.176Z,1.70
2018-08-11T09:22:36.271Z,1.80
2018-08-11T09:25:10.064Z,1.50
2018-08-11T09:27:50.562Z,1.60
2018-08-11T09:30:24.766Z,1.72
2018-08-11T09:32:58.806Z,1.50
2018-08-11T09:35:33.041Z,1.70
2018-08-11T09:38:07.174Z,1.40
2018-08-11T09:40:43.476Z,1.55
2018-08-11T09:43:18.081Z,1.47
2018-08-11T09:45:52.569Z,1.42
2018-08-11T09:48:26.480Z,1.60
2018-08-11T09:51:00.282Z,1.80
2018-08-11T09:53:34.196Z,1.40
2018-08-11T09:56:08.173Z,1.47
2018-08-11T09:58:42.827Z,1.70
2018-08-11T10:01:22.439Z,1.60
2018-08-11T10:03:56.237Z,2.00
2018-08-11T10:06:29.688Z,1.50
2018-08-11T10:09:03.287Z,1.60
2018-08-11T10:11:36.852Z,1.65
2018-08-11T10:14:10.267Z,1.70
2018-08-11T10:16:43.681Z,1.70
2018-08-11T10:19:17.102Z,1.60
2018-08-11T10:21:50.545Z,1.90
2018-08-11T10:24:23.993Z,1.80
2018-08-11T10:26:57.454Z,1.65
2018-08-11T10:29:31.061Z,1.85
2018-08-11T10:32:04.457Z,1.75
2018-08-11T10:34:37.886Z,1.67
2018-08-11T10:37:11.282Z,1.82
2018-08-11T10:39:44.718Z,1.80
2018-08-11T10:42:18.079Z,1.60
2018-08-11T10:44:52.263Z,1.72
2018-08-11T10:47:25.729Z,1.72
2018-08-11T10:49:59.241Z,1.72
2018-08-11T10:52:34.075Z,1.90
2018-08-11T10:55:07.553Z,2.00
2018-08-11T10:57:40.976Z,1.60
2018-08-11T11:00:14.391Z,1.60
2018-08-11T11:02:47.767Z,1.80
2018-08-11T11:05:21.343Z,1.30
2018-08-11T11:07:54.726Z,2.12
2018-08-11T11:10:28.267Z,1.72
2018-08-11T11:13:01.665Z,1.27
2018-08-11T11:15:35.085Z,1.60
2018-08-11T11:18:08.485Z,1.67
2018-08-11T11:20:41.944Z,1.37
2018-08-11T11:23:15.400Z,1.20
2018-08-11T11:25:48.795Z,1.25
2018-08-11T11:28:22.178Z,1.47
2018-08-11T11:30:55.637Z,1.52
2018-08-11T11:33:29.151Z,1.60
2018-08-11T11:36:02.552Z,1.37
2018-08-11T11:38:36.032Z,1.40
2018-08-11T11:41:09.489Z,1.52
2018-08-11T11:43:42.996Z,1.70
2018-08-11T11:46:16.954Z,1.20
2018-08-11T11:48:50.461Z,1.57
2018-08-11T11:51:23.832Z,1.50
2018-08-11T11:53:57.295Z,1.60
2018-08-11T11:56:30.723Z,1.70
2018-08-11T11:59:04.156Z,1.37
2018-08-11T12:01:37.553Z,1.60
2018-08-11T12:04:10.972Z,1.87
2018-08-11T12:06:44.376Z,1.47
2018-08-11T12:09:17.816Z,1.62
2018-08-11T12:11:51.460Z,5.42
2018-08-11T12:14:24.868Z,1.77
2018-08-11T12:16:58.299Z,1.75
2018-08-11T12:19:31.746Z,1.37
2018-08-11T12:22:05.328Z,1.72
2018-08-11T12:24:38.981Z,1.40
2018-08-11T12:27:12.460Z,1.47
2018-08-11T12:29:46.154Z,1.40
2018-08-11T12:32:19.738Z,1.52
2018-08-11T12:34:53.344Z,1.30
2018-08-11T12:37:26.770Z,1.37
2018-08-11T12:40:00.290Z,1.30
2018-08-11T12:42:34.007Z,1.30
2018-08-11T12:45:07.464Z,1.45
2018-08-11T12:47:41.445Z,1.50
2018-08-11T12:50:14.872Z,1.50
2018-08-11T12:52:48.250Z,1.57
2018-08-11T12:55:21.688Z,1.80
2018-08-11T12:57:55.097Z,2.10
2018-08-11T13:00:28.540Z,2.90
2018-08-11T13:03:01.920Z,2.55
2018-08-11T13:05:35.422Z,2.95
2018-08-11T13:08:08.804Z,2.40
2018-08-11T13:10:42.194Z,2.27
2018-08-11T13:13:15.605Z,1.95
2018-08-11T13:15:49.089Z,2.12
2018-08-11T13:18:22.517Z,2.47
2018-08-11T13:20:56.227Z,1.80
2018-08-11T13:23:29.814Z,1.70
2018-08-11T13:26:03.798Z,2.08
2018-08-11T13:29:00.069Z,2.15
2018-08-11T13:31:37.067Z,1.80
2018-08-11T13:34:19.473Z,2.10
2018-08-11T13:39:36.966Z,2.05
2018-08-11T13:42:10.443Z,1.75
2018-08-11T13:44:43.844Z,1.80
2018-08-11T13:47:17.898Z,1.30
2018-08-11T13:49:51.316Z,1.55
2018-08-11T13:52:25.132Z,1.80
2018-08-11T13:54:58.945Z,1.60
2018-08-11T13:57:32.512Z,1.47
2018-08-11T14:00:07.483Z,1.32
2018-08-11T14:02:41.341Z,1.55
2018-08-11T14:05:15.007Z,1.17
2018-08-11T14:07:49.234Z,1.17
2018-08-11T14:10:23.218Z,1.22
2018-08-11T14:12:57.008Z,1.20
2018-08-11T14:15:30.940Z,1.40
2018-08-11T14:18:04.944Z,1.47
2018-08-11T14:20:38.766Z,1.42
2018-08-11T14:23:12.414Z,1.12
2018-08-11T14:25:46.741Z,1.02
2018-08-11T14:28:20.518Z,1.35
2018-08-11T14:30:54.284Z,1.17
2018-08-11T14:33:28.104Z,1.05
2018-08-11T14:36:02.037Z,0.90
2018-08-11T14:38:35.955Z,1.07
2018-08-11T14:41:09.713Z,1.05
2018-08-11T14:43:43.410Z,1.00
2018-08-11T14:46:17.342Z,1.10
2018-08-11T14:48:51.341Z,1.10
2018-08-11T14:51:25.188Z,0.90
2018-08-11T14:53:59.080Z,0.70
2018-08-11T14:56:32.564Z,0.82
2018-08-11T14:59:06.127Z,1.00
2018-08-11T15:01:39.627Z,0.93
2018-08-11T15:04:13.013Z,0.68
2018-08-11T15:06:46.418Z,0.80
2018-08-11T15:09:19.785Z,0.88
2018-08-11T15:11:53.182Z,1.00
2018-08-11T15:14:26.553Z,0.62
2018-08-11T15:17:00.060Z,0.90
2018-08-11T15:19:33.463Z,1.00
2018-08-11T15:22:06.915Z,0.80
2018-08-11T15:24:40.283Z,0.90
2018-08-11T15:27:13.697Z,0.90
2018-08-11T15:29:47.176Z,0.90
2018-08-11T15:32:20.561Z,1.00
2018-08-11T15:34:54.018Z,0.93
2018-08-11T15:37:27.443Z,0.90
2018-08-11T15:40:00.830Z,1.10
2018-08-11T15:42:34.321Z,0.95
2018-08-11T15:45:08.143Z,1.20
2018-08-11T15:47:41.543Z,1.00
2018-08-11T15:50:14.999Z,1.05
2018-08-11T15:52:48.398Z,1.00
2018-08-11T15:55:21.789Z,0.90
2018-08-11T15:57:55.192Z,1.05
2018-08-11T16:00:28.769Z,1.20
2018-08-11T16:03:02.170Z,0.93
2018-08-11T16:05:35.579Z,1.02
2018-08-11T16:08:08.969Z,0.90
2018-08-11T16:10:42.355Z,0.98
2018-08-11T16:13:15.787Z,0.95
2018-08-11T16:15:49.195Z,0.95
2018-08-11T16:18:22.599Z,0.88
2018-08-11T16:20:55.972Z,0.90
2018-08-11T16:23:29.414Z,1.00
2018-08-11T16:26:02.785Z,0.80
2018-08-11T16:28:36.320Z,0.90
2018-08-11T16:31:09.723Z,0.78
2018-08-11T16:33:43.309Z,0.93
2018-08-11T16:36:16.760Z,1.17
2018-08-11T16:38:54.266Z,1.00
2018-08-11T16:41:27.734Z,1.05
2018-08-11T16:44:01.167Z,1.02
2018-08-11T16:46:34.561Z,1.12
2018-08-11T16:49:07.963Z,1.20
2018-08-11T16:51:41.337Z,1.15
2018-08-11T16:54:14.714Z,0.98
2018-08-11T16:56:48.089Z,1.17
2018-08-11T16:59:21.504Z,0.80
2018-08-11T17:01:54.961Z,0.80
2018-08-11T17:04:28.372Z,0.93
2018-08-11T17:07:01.806Z,0.93
2018-08-11T17:09:35.181Z,1.07
2018-08-11T17:12:08.663Z,0.90
2018-08-11T17:14:42.124Z,0.90
2018-08-11T17:17:15.477Z,0.98
2018-08-11T17:19:48.839Z,1.07
2018-08-11T17:22:22.236Z,0.90
2018-08-11T17:24:55.595Z,1.20
2018-08-11T17:27:29.023Z,0.90
2018-08-11T17:30:02.419Z,1.20
2018-08-11T17:32:36.035Z,0.93
2018-08-11T17:35:09.362Z,1.22
2018-08-11T17:37:42.760Z,0.98
2018-08-11T17:40:16.142Z,1.07
2018-08-11T17:42:49.563Z,1.30
2018-08-11T17:45:23.030Z,0.93
2018-08-11T17:47:56.424Z,0.80
2018-08-11T17:50:29.841Z,1.00
2018-08-11T17:53:03.262Z,1.07
2018-08-11T17:55:36.741Z,0.93
2018-08-11T17:58:10.052Z,0.93
2018-08-11T18:00:43.466Z,0.90
2018-08-11T18:03:16.918Z,0.95
2018-08-11T18:05:50.306Z,0.95
2018-08-11T18:08:23.769Z,1.27
2018-08-11T18:10:57.162Z,0.90
2018-08-11T18:13:30.559Z,0.93
2018-08-11T18:16:03.976Z,1.10
2018-08-11T18:18:37.383Z,0.85
2018-08-11T18:21:10.822Z,1.22
2018-08-11T18:23:44.220Z,1.02
2018-08-11T18:26:18.571Z,0.85
2018-08-11T18:28:52.820Z,1.15
2018-08-11T18:31:28.607Z,0.80
2018-08-11T18:34:02.795Z,0.98
2018-08-11T18:36:36.712Z,1.00
2018-08-11T18:39:12.710Z,1.00
2018-08-11T18:41:46.721Z,1.20
2018-08-11T18:44:20.919Z,1.20
2018-08-11T18:46:56.122Z,0.80
2018-08-11T18:49:30.335Z,0.90
2018-08-11T18:52:04.794Z,1.22
2018-08-11T18:54:38.615Z,0.90
2018-08-11T18:57:12.724Z,0.85
2018-08-11T18:59:46.867Z,0.95
2018-08-11T19:02:20.977Z,1.00
2018-08-11T19:04:55.209Z,1.20
2018-08-11T19:07:29.542Z,1.00
2018-08-11T19:10:03.010Z,1.15
2018-08-11T19:12:37.017Z,0.82
2018-08-11T19:15:13.320Z,1.10
2018-08-11T19:17:46.730Z,1.07
2018-08-11T19:20:20.262Z,0.90
2018-08-11T19:22:53.851Z,1.30
2018-08-11T19:25:27.379Z,0.85
2018-08-11T19:28:01.465Z,1.20
2018-08-11T19:30:35.663Z,1.20
2018-08-11T19:33:09.970Z,1.02
2018-08-11T19:35:44.109Z,0.80
2018-08-11T19:38:18.306Z,0.88
2018-08-11T19:40:52.569Z,1.17
2018-08-11T19:43:26.984Z,1.00
2018-08-11T19:46:01.330Z,1.20
2018-08-11T19:48:35.472Z,1.20
2018-08-11T19:51:09.872Z,1.30
2018-08-11T19:53:44.076Z,0.90
2018-08-11T19:56:19.014Z,1.10
2018-08-11T19:58:53.116Z,1.00
2018-08-11T20:01:27.337Z,0.90
2018-08-11T20:04:01.647Z,1.35
2018-08-11T20:06:36.532Z,4.95
2018-08-11T20:09:10.506Z,3.50
2018-08-11T20:11:43.905Z,2.05
2018-08-11T20:14:17.327Z,1.32
2018-08-11T20:16:50.709Z,1.50
2018-08-11T20:19:24.351Z,1.17
2018-08-11T20:21:57.563Z,1.10
2018-08-11T20:24:30.981Z,1.00
2018-08-11T20:27:04.409Z,1.30
2018-08-11T20:29:39.180Z,1.20
2018-08-11T20:32:13.798Z,1.25
2018-08-11T20:34:47.238Z,1.72
2018-08-11T20:37:20.821Z,1.12
2018-08-11T20:39:54.393Z,1.32
2018-08-11T20:42:27.923Z,1.12
2018-08-11T20:45:01.382Z,1.40
2018-08-11T20:47:34.780Z,2.90
2018-08-11T20:50:08.901Z,3.52
2018-08-11T20:52:42.637Z,2.80
2018-08-11T20:55:16.082Z,2.72
2018-08-11T20:57:49.446Z,3.15
2018-08-11T21:00:22.909Z,2.60
2018-08-11T21:02:56.263Z,1.98
2018-08-11T21:05:29.732Z,1.90
2018-08-11T21:08:03.153Z,1.55
2018-08-11T21:10:36.576Z,1.40
2018-08-11T21:13:10.040Z,1.98
2018-08-11T21:15:43.467Z,2.10
2018-08-11T21:18:16.960Z,2.15
2018-08-11T21:20:50.361Z,2.95
2018-08-11T21:23:23.772Z,2.87
2018-08-11T21:25:57.196Z,2.05
2018-08-11T21:28:30.829Z,2.10
2018-08-11T21:31:04.368Z,2.52
2018-08-11T21:33:37.736Z,1.90
2018-08-11T21:36:11.190Z,1.87
2018-08-11T21:38:44.570Z,1.80
2018-08-11T21:41:18.256Z,2.10
2018-08-11T21:43:51.654Z,2.10
2018-08-11T21:46:25.081Z,2.15
2018-08-11T21:48:58.505Z,1.62
2018-08-11T21:51:31.936Z,1.35
2018-08-11T21:54:05.331Z,1.45
2018-08-11T21:56:38.825Z,1.60
2018-08-11T21:59:12.223Z,3.33
2018-08-11T22:01:46.751Z,3.05
2018-08-11T22:04:20.500Z,3.15
2018-08-11T22:06:54.004Z,2.98
2018-08-11T22:09:27.523Z,2.45
2018-08-11T22:12:01.310Z,2.00
2018-08-11T22:14:35.014Z,1.90
2018-08-11T22:17:08.582Z,1.47
2018-08-11T22:19:42.179Z,2.50
2018-08-11T22:22:15.750Z,2.40
2018-08-11T22:24:49.406Z,2.80
2018-08-11T22:27:22.998Z,2.85
2018-08-11T22:29:56.498Z,2.67
2018-08-11T22:32:30.121Z,2.00
2018-08-11T22:35:04.547Z,3.10
2018-08-11T22:37:38.091Z,1.70
2018-08-11T22:40:11.687Z,2.05
2018-08-11T22:42:45.299Z,1.87
2018-08-11T22:45:18.965Z,1.95
2018-08-11T22:47:52.532Z,1.30
2018-08-11T22:50:26.010Z,1.50
2018-08-11T22:52:59.588Z,1.87
2018-08-11T22:55:33.214Z,1.50
2018-08-11T22:58:06.948Z,1.30
2018-08-11T23:00:40.543Z,1.80
2018-08-11T23:03:14.061Z,1.75
2018-08-11T23:05:47.737Z,1.60
2018-08-11T23:08:21.297Z,1.60
2018-08-11T23:10:55.021Z,1.65
2018-08-11T23:13:28.675Z,1.70
2018-08-11T23:16:02.267Z,1.60
2018-08-11T23:18:35.966Z,1.52
2018-08-11T23:21:09.617Z,1.72
2018-08-11T23:23:43.200Z,1.60
2018-08-11T23:26:16.696Z,1.80
2018-08-11T23:28:50.292Z,1.77
2018-08-11T23:31:23.948Z,1.75
2018-08-11T23:33:57.507Z,1.62
2018-08-11T23:36:31.048Z,1.45
2018-08-11T23:39:07.234Z,1.27
2018-08-11T23:41:41.511Z,1.55
2018-08-11T23:44:14.954Z,1.60
2018-08-11T23:46:48.536Z,1.72
2018-08-11T23:49:22.026Z,1.67
2018-08-11T23:51:55.582Z,1.52
2018-08-11T23:54:29.109Z,1.57
2018-08-11T23:57:03.105Z,1.60
2018-08-11T23:59:36.914Z,1.15
